Time;durP1;ratioP1;P1;durP2;ratioP2;P2;SDS_P1;SDS_P2;PMS_P1;PMS_P2;Temp;Humidity;BMP_temperature;BMP_pressure;BME280_temperature;BME280_humidity;BME280_pressure;Samples;Min_cycle;Max_cycle;Signal;HPM_P1;HPM_P2
2022/09/08 00:01:37;;;;;;;11.90;6.68;;;;;;;104.25;100.00;61586.06;5003961;28;20433;-77
2022/09/08 00:04:05;;;;;;;8.82;6.13;;;;;;;104.25;100.00;61586.06;5000520;28;20052;-75
2022/09/08 00:06:32;;;;;;;7.57;5.90;;;;;;;-144.47;100.00;61586.06;5002341;28;20057;-76
2022/09/08 00:08:58;;;;;;;9.20;5.85;;;;;;;104.25;100.00;61586.06;5001785;28;20137;-77
2022/09/08 00:11:28;;;;;;;9.02;6.03;;;;;;;104.25;100.00;61586.06;4999958;28;21009;-77
2022/09/08 00:13:56;;;;;;;11.20;6.90;;;;;;;104.25;100.00;61586.06;5002756;28;20073;-77
2022/09/08 00:16:22;;;;;;;12.25;5.85;;;;;;;104.25;100.00;61586.06;5000894;28;20022;-79
2022/09/08 00:18:50;;;;;;;8.40;5.90;;;;;;;42.00;100.00;61586.06;5004590;28;20092;-77
2022/09/08 00:21:17;;;;;;;9.40;5.80;;;;;;;104.25;100.00;61586.06;5002527;28;20116;-77
2022/09/08 00:23:42;;;;;;;8.88;5.93;;;;;;;-144.47;100.00;61586.06;4999729;28;20034;-79
2022/09/08 00:26:08;;;;;;;6.75;5.57;;;;;;;22.96;100.00;61586.06;5001385;28;20036;-77
2022/09/08 00:28:33;;;;;;;7.22;5.57;;;;;;;187.31;100.00;61586.06;5001853;28;20483;-78
2022/09/08 00:30:59;;;;;;;8.32;6.10;;;;;;;104.25;100.00;61586.06;5002253;28;20037;-78
2022/09/08 00:33:25;;;;;;;11.25;5.72;;;;;;;-144.47;100.00;61586.06;5002088;28;20041;-77
2022/09/08 00:35:51;;;;;;;6.57;5.13;;;;;;;104.25;100.00;61586.06;5002117;28;20034;-76
2022/09/08 00:38:19;;;;;;;9.23;6.88;;;;;;;104.25;100.00;61586.06;5001456;28;20066;-77
2022/09/08 00:40:46;;;;;;;8.80;5.85;;;;;;;187.31;100.00;61586.06;4998608;28;20030;-78
2022/09/08 00:43:34;;;;;;;8.15;6.35;;;;;;;187.31;100.00;61586.06;5001875;28;20035;-79
2022/09/08 00:46:09;;;;;;;7.72;6.15;;;;;;;104.25;100.00;61586.06;4996677;28;20068;-78
2022/09/08 00:49:11;;;;;;;8.43;5.95;;;;;;;-144.47;100.00;61586.06;4996236;28;20049;-77
2022/09/08 00:51:43;;;;;;;11.32;6.50;;;;;;;-144.47;100.00;61586.06;4989712;28;20136;-78
2022/09/08 00:54:10;;;;;;;8.70;6.10;;;;;;;-144.47;100.00;61586.06;4997987;28;20037;-77
2022/09/08 00:56:37;;;;;;;7.90;5.75;;;;;;;22.80;100.00;61586.06;5000592;28;20040;-76
2022/09/08 00:59:04;;;;;;;6.95;6.30;;;;;;;-144.47;100.00;61586.06;4995643;28;20045;-77
2022/09/08 01:01:34;;;;;;;6.85;6.15;;;;;;;-144.47;100.00;61586.06;4998839;28;20048;-76
2022/09/08 01:04:00;;;;;;;;;;;;;;;-144.47;100.00;61586.06;4994943;28;20034;-77
2022/09/08 01:12:44;;;;;;;10.60;7.40;;;;;;;-144.47;100.00;61586.06;4998723;28;20073;-76
2022/09/08 01:15:14;;;;;;;8.65;7.75;;;;;;;-144.47;100.00;61586.06;4999689;28;20034;-77
2022/09/08 01:17:39;;;;;;;8.05;7.20;;;;;;;-144.47;100.00;61586.06;5000952;28;20030;-73
2022/09/08 01:20:10;;;;;;;10.23;8.20;;;;;;;-144.47;100.00;61586.06;4999758;28;20057;-75
2022/09/08 01:22:55;;;;;;;8.75;7.10;;;;;;;-144.47;100.00;61586.06;5005323;28;20526;-75
2022/09/08 01:25:57;;;;;;;13.35;8.30;;;;;;;-144.47;100.00;61586.06;5000537;28;20509;-78
2022/09/08 01:28:30;;;;;;;9.57;7.30;;;;;;;-144.47;100.00;61586.06;5002346;28;20092;-79
2022/09/08 01:30:57;;;;;;;9.65;7.68;;;;;;;-144.47;100.00;61586.06;5003418;28;20033;-77
2022/09/08 01:33:22;;;;;;;8.43;7.57;;;;;;;-144.47;100.00;61586.06;5001534;28;20352;-79
2022/09/08 01:35:48;;;;;;;10.25;7.13;;;;;;;-144.47;100.00;61586.06;5002444;28;20034;-78
2022/09/08 01:38:13;;;;;;;12.45;7.00;;;;;;;-144.47;100.00;61586.06;5000911;28;20030;-78
2022/09/08 01:40:39;;;;;;;12.02;6.60;;;;;;;-144.47;100.00;61586.06;4998307;28;20105;-78
2022/09/08 01:43:08;;;;;;;12.15;6.78;;;;;;;-144.47;100.00;61586.06;5000780;28;20046;-78
2022/09/08 01:45:35;;;;;;;10.50;6.30;;;;;;;-144.47;100.00;61586.06;5000710;28;20066;-78
2022/09/08 01:48:01;;;;;;;8.60;5.40;;;;;;;104.25;100.00;61586.06;5003517;28;20044;-78
2022/09/08 01:50:26;;;;;;;8.95;6.63;;;;;;;-144.47;100.00;61586.06;4999039;28;20037;-79
2022/09/08 01:52:52;;;;;;;6.50;6.00;;;;;;;-144.47;100.00;61586.06;5001504;28;20089;-79
2022/09/08 01:55:17;;;;;;;9.77;6.25;;;;;;;-144.47;100.00;61586.06;4998125;28;20561;-78
2022/09/08 01:57:43;;;;;;;6.93;6.10;;;;;;;62.74;100.00;61586.06;5001702;28;20034;-75
2022/09/08 02:00:10;;;;;;;7.72;5.47;;;;;;;-144.47;100.00;61586.06;5001366;28;20121;-76
2022/09/08 02:02:35;;;;;;;8.45;6.30;;;;;;;-144.47;100.00;61586.06;5002278;28;20558;-76
2022/09/08 02:05:01;;;;;;;7.13;5.97;;;;;;;-144.47;100.00;61586.06;5010436;28;20470;-77
2022/09/08 02:07:26;;;;;;;9.63;5.95;;;;;;;-144.47;100.00;61586.06;5013722;28;20107;-77
2022/09/08 02:09:53;;;;;;;6.18;5.45;;;;;;;-144.47;100.00;61586.06;5003999;28;20364;-77
2022/09/08 02:12:19;;;;;;;7.85;5.55;;;;;;;-144.47;100.00;61586.06;5000609;28;20073;-77
2022/09/08 02:14:44;;;;;;;8.43;5.47;;;;;;;-144.47;100.00;61586.06;4998742;28;20391;-76
2022/09/08 02:17:10;;;;;;;6.90;6.00;;;;;;;-144.47;100.00;61586.06;5000622;28;20037;-78
2022/09/08 02:19:35;;;;;;;7.05;4.80;;;;;;;187.31;100.00;61586.06;5001661;28;20376;-77
2022/09/08 02:22:01;;;;;;;9.88;5.53;;;;;;;104.25;100.00;61586.06;5000605;28;20026;-78
2022/09/08 02:24:27;;;;;;;12.15;5.65;;;;;;;187.31;100.00;61586.06;5000598;28;20410;-77
2022/09/08 02:26:52;;;;;;;9.20;5.28;;;;;;;187.31;100.00;61586.06;5002503;28;20849;-78
2022/09/08 02:29:17;;;;;;;5.65;5.15;;;;;;;187.31;100.00;61586.06;5000361;28;20482;-77
2022/09/08 02:31:43;;;;;;;8.13;5.68;;;;;;;-144.47;100.00;61586.06;4999423;28;20054;-77
2022/09/08 02:34:09;;;;;;;7.70;6.10;;;;;;;-144.47;100.00;61586.06;5001434;28;20050;-76
2022/09/08 02:36:34;;;;;;;9.38;6.30;;;;;;;-144.47;100.00;61586.06;5000826;28;20139;-77
2022/09/08 02:39:00;;;;;;;8.45;7.30;;;;;;;-144.47;100.00;61586.06;5007537;28;20040;-76
2022/09/08 02:41:27;;;;;;;8.15;5.40;;;;;;;-144.47;100.00;61586.06;5000214;28;20030;-77
2022/09/08 02:43:53;;;;;;;10.98;6.32;;;;;;;-144.47;100.00;61586.06;5004234;28;20036;-75
2022/09/08 02:46:19;;;;;;;7.38;6.45;;;;;;;-144.47;100.00;61586.06;5017541;28;20030;-78
2022/09/08 02:48:45;;;;;;;7.63;6.88;;;;;;;-144.47;100.00;61586.06;5005624;28;20045;-75
2022/09/08 02:51:14;;;;;;;11.98;6.82;;;;;;;-144.47;100.00;61586.06;5001057;28;20132;-75
2022/09/08 02:53:40;;;;;;;8.80;7.15;;;;;;;-144.47;100.00;61586.06;5005925;28;20025;-77
2022/09/08 02:56:07;;;;;;;8.50;6.63;;;;;;;22.16;100.00;61586.06;5001454;28;20046;-78
2022/09/08 02:58:33;;;;;;;12.23;8.20;;;;;;;22.18;100.00;93103.69;5007307;28;20034;-76
2022/09/08 03:00:59;;;;;;;11.20;7.25;;;;;;;-144.47;100.00;61586.06;5004381;28;20038;-78
2022/09/08 03:03:25;;;;;;;8.35;7.20;;;;;;;22.15;100.00;61586.06;5003766;28;20401;-75
2022/09/08 03:05:51;;;;;;;13.00;7.97;;;;;;;-144.47;100.00;61586.06;5003680;28;20034;-76
2022/09/08 03:08:18;;;;;;;12.07;7.68;;;;;;;-144.47;100.00;61586.06;5004371;28;20051;-78
2022/09/08 03:10:44;;;;;;;10.35;8.00;;;;;;;-144.47;100.00;61586.06;5004929;28;20439;-77
2022/09/08 03:13:10;;;;;;;10.25;7.90;;;;;;;-144.47;100.00;61586.06;5002700;28;20467;-78
2022/09/08 03:15:36;;;;;;;8.80;7.95;;;;;;;-144.47;100.00;61586.06;5001354;28;20034;-78
2022/09/08 03:18:04;;;;;;;9.73;8.15;;;;;;;-144.47;100.00;61586.06;5003100;28;20037;-79
2022/09/08 03:20:33;;;;;;;8.40;7.60;;;;;;;-144.47;100.00;61586.06;5004564;28;20121;-78
2022/09/08 03:22:59;;;;;;;9.15;8.18;;;;;;;-144.47;100.00;61586.06;5004650;28;20038;-78
2022/09/08 03:25:26;;;;;;;8.35;7.47;;;;;;;-144.47;100.00;61586.06;5003829;28;20053;-77
2022/09/08 03:27:51;;;;;;;10.65;7.75;;;;;;;-144.47;100.00;61586.06;5003901;28;20433;-78
2022/09/08 03:30:18;;;;;;;9.20;8.30;;;;;;;-144.47;100.00;61586.06;5004552;28;20050;-79
2022/09/08 03:32:45;;;;;;;13.00;7.70;;;;;;;-144.47;100.00;61586.06;5001053;28;20041;-78
2022/09/08 03:35:13;;;;;;;10.80;7.63;;;;;;;-144.47;100.00;61586.06;5003139;28;20450;-77
2022/09/08 03:37:40;;;;;;;10.98;7.75;;;;;;;-144.47;100.00;61586.06;5000537;28;20038;-77
2022/09/08 03:40:09;;;;;;;8.40;7.53;;;;;;;-144.47;100.00;61586.06;5004013;28;20022;-76
2022/09/08 03:42:36;;;;;;;8.43;7.20;;;;;;;-144.47;100.00;61586.06;5001555;28;20433;-77
2022/09/08 03:45:09;;;;;;;11.00;8.65;;;;;;;-144.47;100.00;61586.06;5035525;28;20038;-77
2022/09/08 03:47:35;;;;;;;8.32;7.43;;;;;;;-144.47;100.00;61586.06;4999310;28;20403;-78
2022/09/08 03:50:00;;;;;;;9.73;7.28;;;;;;;-144.47;100.00;61586.06;4993477;28;20034;-78
2022/09/08 03:52:26;;;;;;;10.27;8.60;;;;;;;187.31;100.00;61586.06;5003375;28;20040;-79
2022/09/08 03:54:52;;;;;;;11.40;8.27;;;;;;;-144.47;100.00;61586.06;5003880;28;20034;-78
2022/09/08 03:57:24;;;;;;;9.02;7.70;;;;;;;-144.47;100.00;61586.06;5003297;28;20073;-78
2022/09/08 03:59:51;;;;;;;9.05;7.53;;;;;;;-144.47;100.00;61586.06;5005133;28;20597;-78
2022/09/08 04:02:18;;;;;;;9.82;7.90;;;;;;;-144.47;100.00;61586.06;5003783;28;20537;-78
2022/09/08 04:04:48;;;;;;;10.43;8.68;;;;;;;-144.47;100.00;61586.06;5002928;28;20039;-78
2022/09/08 04:07:13;;;;;;;10.20;7.97;;;;;;;-144.47;100.00;61586.06;4999271;28;20042;-78
2022/09/08 04:09:40;;;;;;;12.68;8.82;;;;;;;-144.47;100.00;61586.06;5002039;28;20044;-79
2022/09/08 04:12:06;;;;;;;9.43;8.35;;;;;;;-144.47;100.00;61586.06;5000703;28;20023;-76
2022/09/08 04:14:32;;;;;;;11.90;9.25;;;;;;;-144.47;100.00;61586.06;5003210;28;20038;-78
2022/09/08 04:16:58;;;;;;;11.50;9.65;;;;;;;-144.47;100.00;61586.06;5002551;28;20088;-77
2022/09/08 04:19:23;;;;;;;14.48;8.55;;;;;;;-144.47;100.00;61586.06;5002853;28;20429;-77
2022/09/08 04:21:49;;;;;;;10.20;8.23;;;;;;;-144.47;100.00;61586.06;5002424;28;20041;-76
2022/09/08 04:24:15;;;;;;;11.35;8.27;;;;;;;21.08;100.00;61586.06;5001037;28;20041;-77
2022/09/08 04:26:40;;;;;;;9.23;8.30;;;;;;;-144.47;100.00;61586.06;5003042;28;20386;-76
2022/09/08 04:29:06;;;;;;;10.40;8.38;;;;;;;-144.47;100.00;61586.06;5001865;28;20363;-78
2022/09/08 04:31:34;;;;;;;9.63;8.25;;;;;;;-144.47;100.00;61586.06;4996390;28;20073;-78
2022/09/08 04:34:00;;;;;;;9.32;8.25;;;;;;;-144.47;100.00;61586.06;5000809;28;20025;-78
2022/09/08 04:36:27;;;;;;;9.80;8.82;;;;;;;21.25;100.00;61586.06;5002438;28;20509;-78
2022/09/08 04:38:54;;;;;;;11.25;9.10;;;;;;;42.00;100.00;61586.06;5001717;28;20073;-77
2022/09/08 04:41:19;;;;;;;9.93;8.85;;;;;;;-144.47;100.00;61586.06;4998342;28;20032;-75
2022/09/08 04:43:45;;;;;;;9.50;8.60;;;;;;;-144.47;100.00;61586.06;5004171;28;20030;-77
2022/09/08 04:46:13;;;;;;;9.23;8.30;;;;;;;-144.47;100.00;61586.06;5001559;28;20394;-78
2022/09/08 04:48:40;;;;;;;9.00;8.00;;;;;;;-144.47;100.00;61586.06;5002106;28;20034;-79
2022/09/08 04:51:06;;;;;;;14.40;8.00;;;;;;;21.26;100.00;61586.06;5000770;28;20034;-79
2022/09/08 04:53:33;;;;;;;9.02;8.05;;;;;;;-144.47;100.00;61586.06;5003066;28;20042;-78
2022/09/08 04:56:01;;;;;;;9.23;7.68;;;;;;;-144.47;100.00;61586.06;5002359;28;20041;-78
2022/09/08 04:58:29;;;;;;;9.55;8.50;;;;;;;-144.47;100.00;61586.06;4999273;28;20136;-76
2022/09/08 05:00:54;;;;;;;9.30;8.35;;;;;;;-144.47;100.00;61586.06;5001416;28;20038;-76
2022/09/08 05:03:19;;;;;;;11.73;9.07;;;;;;;-144.47;100.00;61586.06;4999428;28;20038;-77
2022/09/08 05:05:45;;;;;;;12.10;8.98;;;;;;;-144.47;100.00;61586.06;5002610;28;20456;-78
2022/09/08 05:08:10;;;;;;;9.35;8.55;;;;;;;20.92;100.00;61586.06;4998540;28;20546;-78
2022/09/08 05:10:36;;;;;;;11.07;9.75;;;;;;;20.89;100.00;61586.06;5003100;28;20031;-77
2022/09/08 05:13:02;;;;;;;12.23;10.38;;;;;;;20.92;100.00;61586.06;4999279;28;20038;-75
2022/09/08 05:15:28;;;;;;;12.27;11.18;;;;;;;-144.47;100.00;61586.06;5003777;28;20037;-77
2022/09/08 05:17:54;;;;;;;13.00;11.70;;;;;;;-144.47;100.00;61586.06;5001022;28;20125;-78
2022/09/08 05:20:20;;;;;;;15.68;13.00;;;;;;;-144.47;100.00;61586.06;5000797;28;20129;-77
2022/09/08 05:22:46;;;;;;;15.23;13.65;;;;;;;-144.47;100.00;61586.06;4999988;28;20042;-78
2022/09/08 05:25:12;;;;;;;19.70;14.18;;;;;;;-144.47;100.00;61586.06;5001222;28;20061;-78
2022/09/08 05:27:37;;;;;;;15.50;13.05;;;;;;;-144.47;100.00;61586.06;5002039;28;20030;-74
2022/09/08 05:30:03;;;;;;;15.63;13.43;;;;;;;-144.47;100.00;61586.06;4999945;28;20042;-75
2022/09/08 05:32:29;;;;;;;17.75;15.10;;;;;;;-144.47;100.00;61586.06;4999083;28;20033;-74
2022/09/08 05:34:54;;;;;;;20.23;15.77;;;;;;;-144.47;100.00;61586.06;5000353;28;20427;-74
2022/09/08 05:37:19;;;;;;;19.95;15.68;;;;;;;-144.47;100.00;61586.06;5035062;28;20088;-74
2022/09/08 05:39:48;;;;;;;19.95;16.70;;;;;;;-144.47;100.00;61586.06;5001891;28;20034;-73
2022/09/08 05:42:13;;;;;;;20.55;14.80;;;;;;;-144.47;100.00;61586.06;4997255;28;20113;-75
2022/09/08 05:44:39;;;;;;;19.35;14.85;;;;;;;-144.47;100.00;61586.06;5002674;28;20598;-73
2022/09/08 05:47:04;;;;;;;16.48;14.77;;;;;;;-144.47;100.00;61586.06;5001011;28;20045;-73
2022/09/08 05:49:31;;;;;;;18.58;14.55;;;;;;;62.74;100.00;61586.06;5001638;28;20478;-74
2022/09/08 05:51:57;;;;;;;14.70;12.98;;;;;;;-144.47;100.00;61586.06;4998244;28;20037;-74
2022/09/08 05:54:23;;;;;;;12.20;11.00;;;;;;;-144.47;100.00;61586.06;5001986;28;20046;-74
2022/09/08 05:56:48;;;;;;;13.05;10.23;;;;;;;-144.47;100.00;61586.06;5003607;28;20034;-74
2022/09/08 05:59:14;;;;;;;14.30;10.48;;;;;;;-144.47;100.00;61586.06;4999176;28;20117;-74
2022/09/08 06:01:40;;;;;;;14.23;8.75;;;;;;;-144.47;100.00;61586.06;5002126;28;20108;-74
2022/09/08 06:04:06;;;;;;;10.07;8.38;;;;;;;-144.47;100.00;61586.06;4997971;28;20172;-74
2022/09/08 06:06:33;;;;;;;9.50;8.57;;;;;;;-144.47;100.00;61586.06;5001628;28;20054;-74
2022/09/08 06:08:59;;;;;;;10.80;8.77;;;;;;;-144.47;100.00;61586.06;4996894;28;20038;-74
2022/09/08 06:11:26;;;;;;;10.20;8.07;;;;;;;-144.47;100.00;61586.06;5005183;28;20378;-74
2022/09/08 06:13:52;;;;;;;8.23;7.47;;;;;;;-144.47;100.00;61586.06;4988357;28;20030;-73
2022/09/08 06:16:19;;;;;;;9.40;7.25;;;;;;;-144.47;100.00;61586.06;4990373;28;20118;-74
2022/09/08 06:18:45;;;;;;;7.25;6.55;;;;;;;-144.47;100.00;61586.06;4997983;28;20042;-74
2022/09/08 06:21:14;;;;;;;8.65;6.70;;;;;;;-144.47;100.00;61586.06;5001520;28;20047;-74
2022/09/08 06:23:40;;;;;;;8.48;6.70;;;;;;;-144.47;100.00;61586.06;4996860;28;20030;-73
2022/09/08 06:26:15;;;;;;;10.23;7.00;;;;;;;-144.47;100.00;61586.06;4990899;28;20121;-73
2022/09/08 06:28:58;;;;;;;7.18;6.47;;;;;;;-144.47;100.00;61586.06;4993794;28;20350;-74
2022/09/08 06:31:37;;;;;;;8.32;7.53;;;;;;;21.47;100.00;61586.06;4990922;28;20126;-73
2022/09/08 06:34:12;;;;;;;8.27;7.43;;;;;;;-144.47;100.00;61586.06;4993071;28;20355;-72
2022/09/08 06:36:47;;;;;;;10.18;7.53;;;;;;;-144.47;100.00;61586.06;4991098;28;20037;-71
2022/09/08 06:39:20;;;;;;;8.10;6.82;;;;;;;-144.47;100.00;61586.06;4991100;28;20026;-73
2022/09/08 06:42:01;;;;;;;7.82;6.97;;;;;;;-144.47;100.00;61586.06;4995900;28;20026;-73
2022/09/08 06:44:31;;;;;;;7.47;6.78;;;;;;;-144.47;100.00;61586.06;4994508;28;20085;-71
2022/09/08 06:46:57;;;;;;;7.45;6.47;;;;;;;-144.47;100.00;61586.06;4998917;28;20034;-74
2022/09/08 06:49:27;;;;;;;7.07;6.45;;;;;;;-144.47;100.00;61586.06;4997025;28;20038;-73
2022/09/08 06:52:23;;;;;;;11.40;6.90;;;;;;;-144.47;100.00;61586.06;4996382;28;20034;-72
2022/09/08 06:54:58;;;;;;;11.27;8.20;;;;;;;-144.47;100.00;61586.06;4996516;28;20487;-74
2022/09/08 06:57:33;;;;;;;10.45;7.93;;;;;;;-144.47;100.00;61586.06;4997602;28;20050;-75
2022/09/08 07:00:22;;;;;;;8.55;7.70;;;;;;;-144.47;100.00;61586.06;4999920;28;20937;-72
2022/09/08 07:03:17;;;;;;;8.85;8.05;;;;;;;-144.47;100.00;61586.06;4996531;28;20038;-71
2022/09/08 07:06:05;;;;;;;7.30;6.70;;;;;;;-144.47;100.00;61586.06;4987159;28;20046;-72
2022/09/08 07:08:37;;;;;;;8.70;7.88;;;;;;;-144.47;100.00;61586.06;4984172;28;20135;-73
2022/09/08 07:11:20;;;;;;;8.25;7.55;;;;;;;-144.47;100.00;61586.06;4986668;28;20070;-72
2022/09/08 07:14:00;;;;;;;8.65;7.82;;;;;;;-144.47;100.00;61586.06;4986128;28;20089;-73
2022/09/08 07:16:48;;;;;;;10.32;9.32;;;;;;;-144.47;100.00;61586.06;4990825;28;20048;-72
2022/09/08 07:19:35;;;;;;;9.75;8.80;;;;;;;-144.47;100.00;61586.06;4984939;28;20042;-72
2022/09/08 07:22:20;;;;;;;9.30;8.40;;;;;;;-144.47;100.00;61586.06;4990609;28;20061;-72
2022/09/08 07:24:49;;;;;;;10.10;8.48;;;;;;;-144.47;100.00;61586.06;4986158;28;20246;-71
2022/09/08 07:27:15;;;;;;;9.85;8.82;;;;;;;-144.47;100.00;61586.06;4990228;28;20427;-73
2022/09/08 07:29:47;;;;;;;10.57;9.57;;;;;;;-144.47;100.00;61586.06;4995167;28;20034;-73
2022/09/08 07:32:20;;;;;;;9.38;8.48;;;;;;;-144.47;100.00;61586.06;4996384;28;20034;-74
2022/09/08 07:34:51;;;;;;;12.38;9.85;;;;;;;-144.47;100.00;61586.06;4986940;28;20451;-73
2022/09/08 07:37:40;;;;;;;9.13;8.23;;;;;;;-144.47;100.00;61586.06;5000764;28;20074;-73
2022/09/08 07:40:19;;;;;;;9.23;8.32;;;;;;;62.74;100.00;61586.06;4989605;28;20056;-72
2022/09/08 07:42:50;;;;;;;9.32;8.23;;;;;;;-144.47;100.00;61586.06;4982127;28;20522;-72
2022/09/08 07:45:16;;;;;;;10.93;8.85;;;;;;;-144.47;100.00;61586.06;4978456;28;20043;-70
2022/09/08 07:48:20;;;;;;;11.65;8.85;;;;;;;187.31;100.00;61586.06;4979345;28;20041;-72
2022/09/08 07:51:12;;;;;;;11.98;8.90;;;;;;;-144.47;100.00;61586.06;4973513;28;20041;-72
2022/09/08 07:53:44;;;;;;;13.00;9.88;;;;;;;-144.47;100.00;61586.06;4975261;28;20058;-73
2022/09/08 07:56:40;;;;;;;11.30;9.48;;;;;;;-144.47;100.00;61586.06;4977851;28;20037;-72
2022/09/08 07:59:31;;;;;;;12.82;9.00;;;;;;;187.31;100.00;61586.06;4978931;28;20046;-72
2022/09/08 08:02:35;;;;;;;9.95;8.50;;;;;;;104.25;100.00;61586.06;5007601;28;21183;-72
2022/09/08 08:05:27;;;;;;;11.45;10.20;;;;;;;104.25;100.00;61586.06;4979326;28;20194;-73
2022/09/08 08:07:59;;;;;;;12.05;9.85;;;;;;;31.63;100.00;61586.06;4993260;28;20101;-73
2022/09/08 08:10:29;;;;;;;10.85;9.75;;;;;;;187.31;100.00;61586.06;5008463;28;20064;-73
2022/09/08 08:13:04;;;;;;;;;;;;;;;187.31;100.00;61586.06;4979035;28;20088;-73
2022/09/08 08:15:44;;;;;;;11.45;10.27;;;;;;;104.25;100.00;61586.06;4979041;28;19925;-72
2022/09/08 08:18:11;;;;;;;13.05;10.27;;;;;;;187.31;100.00;61586.06;4977191;28;20041;-72
2022/09/08 08:20:50;;;;;;;10.82;8.95;;;;;;;104.25;100.00;61586.06;4975942;28;20100;-73
2022/09/08 08:23:34;;;;;;;10.10;8.98;;;;;;;104.25;100.00;61586.06;4977378;28;20157;-72
2022/09/08 08:26:12;;;;;;;12.63;10.23;;;;;;;187.31;100.00;61586.06;4977449;28;20202;-71
2022/09/08 08:28:43;;;;;;;13.27;10.75;;;;;;;62.74;100.00;61586.06;4975347;28;20458;-74
2022/09/08 08:31:35;;;;;;;11.32;10.13;;;;;;;26.45;100.00;61586.06;4973854;28;20383;-75
2022/09/08 08:34:29;;;;;;;11.52;10.30;;;;;;;187.31;100.00;61586.06;4976366;28;20065;-73
2022/09/08 08:37:01;;;;;;;11.45;10.27;;;;;;;-144.47;100.00;61586.06;4976431;28;20038;-75
2022/09/08 08:39:27;;;;;;;11.65;10.20;;;;;;;-144.47;100.00;61586.06;4975930;28;21136;-74
2022/09/08 08:41:58;;;;;;;12.13;10.95;;;;;;;187.31;100.00;61586.06;4974637;28;20036;-73
2022/09/08 08:44:36;;;;;;;14.07;11.10;;;;;;;187.31;100.00;61586.06;4990453;28;20049;-77
2022/09/08 08:47:16;;;;;;;16.83;11.88;;;;;;;187.31;100.00;61586.06;4993914;28;20034;-75
2022/09/08 08:50:17;;;;;;;11.27;9.93;;;;;;;22.57;100.00;61586.06;4989459;28;20062;-74
2022/09/08 08:53:14;;;;;;;15.63;9.82;;;;;;;31.63;100.00;61586.06;4994667;28;20117;-74
2022/09/08 08:56:03;;;;;;;11.23;10.13;;;;;;;104.25;100.00;61586.06;4998841;28;20042;-74
2022/09/08 08:58:43;;;;;;;10.32;9.05;;;;;;;-144.47;100.00;61586.06;4997797;28;20395;-74
2022/09/08 09:01:39;;;;;;;12.80;10.35;;;;;;;104.25;100.00;61586.06;4991869;28;20038;-74
2022/09/08 09:04:26;;;;;;;11.90;10.73;;;;;;;104.25;100.00;61586.06;4996175;28;20042;-74
2022/09/08 09:07:29;;;;;;;11.98;9.55;;;;;;;104.25;100.00;61586.06;5002962;28;20637;-74
2022/09/08 09:10:30;;;;;;;10.82;9.82;;;;;;;104.25;100.00;61586.06;4999225;28;20048;-75
2022/09/08 09:13:25;;;;;;;10.40;9.40;;;;;;;-144.47;100.00;61586.06;4993235;28;20106;-73
2022/09/08 09:16:15;;;;;;;11.38;10.27;;;;;;;104.25;100.00;61586.06;4998426;28;20057;-74
2022/09/08 09:18:40;;;;;;;11.23;9.02;;;;;;;187.31;100.00;61586.06;4996391;28;20026;-74
2022/09/08 09:21:14;;;;;;;10.65;9.48;;;;;;;187.31;100.00;61586.06;4999322;28;20033;-74
2022/09/08 09:24:00;;;;;;;9.63;7.78;;;;;;;104.25;100.00;61586.06;4999667;28;20390;-74
2022/09/08 09:26:29;;;;;;;11.80;9.52;;;;;;;26.45;100.00;61586.06;4998771;28;20040;-75
2022/09/08 09:29:19;;;;;;;10.48;9.45;;;;;;;104.25;100.00;61586.06;5002224;28;20021;-75
2022/09/08 09:32:01;;;;;;;9.20;7.57;;;;;;;104.25;100.00;61586.06;4998150;28;20045;-75
2022/09/08 09:34:57;;;;;;;9.43;8.40;;;;;;;187.31;100.00;61586.06;5000190;28;20052;-74
2022/09/08 09:37:37;;;;;;;10.65;9.10;;;;;;;104.25;100.00;61586.06;5001201;28;20463;-75
2022/09/08 09:40:09;;;;;;;;;;;;;;;104.25;100.00;61586.06;4999131;28;20446;-75
2022/09/08 09:42:46;;;;;;;12.90;8.57;;;;;;;104.25;100.00;61586.06;5002094;28;19926;-75
2022/09/08 09:45:33;;;;;;;12.23;9.63;;;;;;;104.25;100.00;61586.06;4994236;28;20034;-76
2022/09/08 09:48:26;;;;;;;10.70;9.38;;;;;;;104.25;100.00;61586.06;5004953;28;20026;-74
2022/09/08 09:51:19;;;;;;;14.15;9.98;;;;;;;23.42;100.00;61586.06;5000301;28;20069;-75
2022/09/08 09:54:00;;;;;;;10.35;9.10;;;;;;;104.25;100.00;61586.06;4996681;28;20061;-75
2022/09/08 09:56:35;;;;;;;11.32;10.15;;;;;;;187.31;100.00;61586.06;4999446;28;20049;-75
2022/09/08 09:59:37;;;;;;;11.18;9.85;;;;;;;187.31;100.00;61586.06;4996533;28;20062;-74
2022/09/08 10:02:29;;;;;;;10.60;8.65;;;;;;;62.74;100.00;61586.06;4999192;28;20053;-75
2022/09/08 10:05:29;;;;;;;14.07;10.93;;;;;;;42.00;100.00;61586.06;4998339;28;20041;-75
2022/09/08 10:08:16;;;;;;;10.43;9.48;;;;;;;104.25;100.00;61586.06;4999085;28;20046;-75
2022/09/08 10:11:11;;;;;;;11.73;10.05;;;;;;;-144.47;100.00;61586.06;5000634;28;20126;-75
2022/09/08 10:14:08;;;;;;;13.35;10.73;;;;;;;42.00;100.00;61586.06;5015279;28;20037;-76
2022/09/08 10:16:33;;;;;;;11.05;9.90;;;;;;;-144.47;100.00;61586.06;4991069;28;20034;-75
2022/09/08 10:19:40;;;;;;;14.23;10.00;;;;;;;-144.47;100.00;61586.06;5000419;28;20080;-75
2022/09/08 10:22:25;;;;;;;8.65;7.85;;;;;;;-144.47;100.00;61586.06;5030717;28;20033;-77
2022/09/08 10:25:13;;;;;;;11.13;9.50;;;;;;;-144.47;100.00;61586.06;4999133;28;20047;-75
2022/09/08 10:27:59;;;;;;;11.73;9.93;;;;;;;-144.47;100.00;61586.06;4997246;28;20116;-75
2022/09/08 10:31:02;;;;;;;10.05;8.95;;;;;;;-144.47;100.00;61586.06;5000706;28;20030;-75
2022/09/08 10:33:45;;;;;;;14.90;9.30;;;;;;;-144.47;100.00;61586.06;5000296;28;20034;-76
2022/09/08 10:36:11;;;;;;;9.82;7.03;;;;;;;-144.47;100.00;61586.06;5001416;28;20038;-75
2022/09/08 10:38:57;;;;;;;9.95;8.60;;;;;;;-144.47;100.00;61586.06;5000138;28;20096;-75
2022/09/08 10:41:34;;;;;;;10.48;8.05;;;;;;;-144.47;100.00;61586.06;4998204;28;20531;-75
2022/09/08 10:44:11;;;;;;;10.95;8.65;;;;;;;-144.47;100.00;61586.06;5000588;28;20486;-75
2022/09/08 10:46:58;;;;;;;8.85;8.00;;;;;;;-144.47;100.00;61586.06;4995102;28;20394;-76
2022/09/08 10:50:01;;;;;;;8.10;7.30;;;;;;;-144.47;100.00;61586.06;4998956;28;20112;-75
2022/09/08 10:52:31;;;;;;;10.13;8.40;;;;;;;-144.47;100.00;61586.06;4998871;28;20057;-75
2022/09/08 10:55:34;;;;;;;7.97;7.27;;;;;;;-144.47;100.00;61586.06;5001187;28;20124;-76
2022/09/08 10:58:00;;;;;;;8.18;7.18;;;;;;;-144.47;100.00;61586.06;5003254;28;20042;-76
2022/09/08 11:00:38;;;;;;;11.68;7.18;;;;;;;-144.47;100.00;61586.06;5000502;28;20123;-75
2022/09/08 11:03:16;;;;;;;7.55;6.70;;;;;;;-144.47;100.00;61586.06;5003147;28;20148;-75
2022/09/08 11:05:50;;;;;;;7.78;6.75;;;;;;;-144.47;100.00;61586.06;5003068;28;20673;-75
2022/09/08 11:08:53;;;;;;;8.05;7.35;;;;;;;-144.47;100.00;61586.06;5002713;28;20041;-75
2022/09/08 11:11:49;;;;;;;7.97;7.18;;;;;;;-144.47;100.00;61586.06;5001542;28;20033;-76
2022/09/08 11:14:36;;;;;;;10.60;7.97;;;;;;;-144.47;100.00;61586.06;4998805;28;20042;-76
2022/09/08 11:17:21;;;;;;;7.45;6.75;;;;;;;-144.47;100.00;61586.06;5015544;28;20042;-75
2022/09/08 11:20:04;;;;;;;7.38;6.60;;;;;;;-144.47;100.00;61586.06;5000814;28;20038;-75
2022/09/08 11:23:06;;;;;;;8.13;6.18;;;;;;;-144.47;100.00;61586.06;5000123;28;20034;-75
2022/09/08 11:25:49;;;;;;;9.52;5.90;;;;;;;-144.47;100.00;61586.06;5004152;28;20030;-75
2022/09/08 11:28:37;;;;;;;6.63;5.45;;;;;;;-144.47;100.00;61586.06;4999755;28;20129;-74
2022/09/08 11:31:43;;;;;;;6.88;5.28;;;;;;;-144.47;100.00;61586.06;5000346;28;20041;-75
2022/09/08 11:34:32;;;;;;;4.85;4.40;;;;;;;-144.47;100.00;61586.06;5002341;28;20041;-74
2022/09/08 11:37:01;;;;;;;6.53;4.60;;;;;;;-144.47;100.00;61586.06;5003544;28;20044;-75
2022/09/08 11:39:53;;;;;;;7.10;4.30;;;;;;;-144.47;100.00;61586.06;5001706;28;20038;-75
2022/09/08 11:42:32;;;;;;;4.88;3.90;;;;;;;-144.47;100.00;61586.06;4999656;28;20042;-75
2022/09/08 11:45:35;;;;;;;5.75;4.57;;;;;;;-144.47;100.00;61586.06;5003522;28;20395;-76